createdAt,value
2023-03-16T00:02:32.083Z,24.72
2023-03-16T00:56:14.011Z,24.75
2023-03-16T04:56:24.269Z,24.95
2023-03-16T05:00:24.362Z,24.93
2023-03-16T05:04:24.468Z,24.98
2023-03-16T05:08:24.581Z,25.00
2023-03-16T05:12:24.687Z,25.02
2023-03-16T06:08:25.392Z,25.12
2023-03-16T06:12:25.069Z,25.09
2023-03-16T06:16:25.647Z,25.05
2023-03-16T06:20:25.292Z,25.06
2023-03-16T06:24:25.886Z,25.02
2023-03-16T06:28:25.887Z,25.02
2023-03-16T06:32:25.983Z,25.03
2023-03-16T06:36:26.406Z,25.05
2023-03-16T06:40:26.786Z,25.07
2023-03-16T06:44:26.402Z,25.07
2023-03-16T06:48:26.423Z,25.12
2023-03-16T06:52:26.436Z,25.07
2023-03-16T06:56:26.401Z,25.07
2023-03-16T07:00:26.720Z,25.05
2023-03-16T08:28:26.018Z,24.86
2023-03-16T08:32:25.987Z,24.83
2023-03-16T08:36:25.933Z,24.81
2023-03-16T08:40:26.185Z,24.78
2023-03-16T08:44:25.940Z,24.77
2023-03-16T08:48:25.937Z,24.75
2023-03-16T08:52:25.960Z,24.77
2023-03-16T08:56:26.464Z,24.86
2023-03-16T09:04:26.854Z,25.09
2023-03-16T09:08:26.887Z,25.17
2023-03-16T09:12:26.911Z,25.23
2023-03-16T09:16:26.507Z,25.26
2023-03-16T09:20:29.725Z,25.26
2023-03-16T09:24:26.902Z,25.27
2023-03-16T09:28:26.686Z,25.27
2023-03-16T09:32:26.478Z,25.33
2023-03-16T09:36:25.953Z,25.33
2023-03-16T09:40:25.965Z,25.30
2023-03-16T09:44:25.980Z,25.29
2023-03-16T09:48:25.772Z,25.17
2023-03-16T09:52:25.964Z,25.12
2023-03-16T09:56:26.006Z,25.05
2023-03-16T10:00:26.535Z,24.99
2023-03-16T10:04:26.467Z,24.96
2023-03-16T10:12:26.967Z,24.89
2023-03-16T10:16:27.602Z,24.86
2023-03-16T10:20:27.240Z,24.88
2023-03-16T11:04:28.092Z,25.12
2023-03-16T11:16:28.206Z,25.22
2023-03-16T11:20:28.034Z,25.20
2023-03-16T11:24:28.005Z,25.22
2023-03-16T11:28:28.008Z,25.19
2023-03-16T11:32:28.076Z,25.16
2023-03-16T11:36:28.172Z,25.09
2023-03-16T11:40:28.529Z,25.05
2023-03-16T11:44:27.849Z,25.02
2023-03-16T11:48:28.010Z,24.99
2023-03-16T11:52:28.037Z,24.90
2023-03-16T11:56:27.972Z,24.90
2023-03-16T12:00:28.013Z,24.90
2023-03-16T12:04:28.149Z,24.88
2023-03-16T12:08:28.534Z,24.86
2023-03-16T12:12:28.523Z,24.83
2023-03-16T12:48:30.026Z,24.74
2023-03-16T15:00:50.184Z,24.70
2023-03-16T15:08:35.580Z,24.70
2023-03-16T15:16:35.612Z,24.68
2023-03-16T15:20:35.258Z,24.68
2023-03-16T15:24:35.582Z,24.64
2023-03-16T15:28:35.585Z,24.64
2023-03-16T15:44:35.835Z,24.60
2023-03-16T15:48:36.092Z,24.55
2023-03-16T15:52:36.623Z,24.57
2023-03-16T15:56:47.219Z,24.57
2023-03-16T16:00:36.507Z,24.58
2023-03-16T16:04:36.518Z,24.60
2023-03-16T16:08:36.473Z,24.60
2023-03-16T16:12:36.457Z,24.57
2023-03-16T16:16:36.645Z,24.60
2023-03-16T16:20:36.659Z,24.61
2023-03-16T16:24:36.601Z,24.61
2023-03-16T16:32:37.135Z,24.61
2023-03-16T16:52:37.634Z,24.64
2023-03-16T16:56:37.768Z,24.61
2023-03-16T17:04:37.954Z,24.64
2023-03-16T17:08:37.965Z,24.60
2023-03-16T17:12:38.060Z,24.61
2023-03-16T17:16:38.196Z,24.61
2023-03-16T17:20:38.177Z,24.60
2023-03-16T17:24:38.625Z,24.61
2023-03-16T17:28:38.375Z,24.60
2023-03-16T17:32:38.532Z,24.58
2023-03-16T17:36:38.692Z,24.58
2023-03-16T17:40:38.912Z,24.60
2023-03-16T17:44:39.161Z,24.58
2023-03-16T17:48:39.316Z,24.60
2023-03-16T17:52:39.409Z,24.58
2023-03-16T17:56:39.490Z,24.58
2023-03-16T18:00:39.566Z,24.58
2023-03-16T18:04:39.649Z,24.58
2023-03-16T18:08:39.718Z,24.60
2023-03-16T18:12:39.811Z,24.60
2023-03-16T18:16:39.943Z,24.60
2023-03-16T18:20:39.941Z,24.60
2023-03-16T18:24:40.003Z,24.61
2023-03-16T18:28:40.061Z,24.61
2023-03-16T18:32:40.243Z,24.57
2023-03-16T18:36:40.228Z,24.60
2023-03-16T18:40:40.308Z,24.61
2023-03-16T18:44:40.382Z,24.60
2023-03-16T18:48:40.491Z,24.57
2023-03-16T18:52:40.549Z,24.60
2023-03-16T18:56:40.617Z,24.57
2023-03-16T19:00:40.729Z,24.57
2023-03-16T19:04:40.808Z,24.57
2023-03-16T19:08:40.847Z,24.57
2023-03-16T19:12:40.932Z,24.54
2023-03-16T19:16:41.109Z,24.57
2023-03-16T19:20:41.268Z,24.55
2023-03-16T19:24:41.446Z,24.55
2023-03-16T19:28:41.664Z,24.55
2023-03-16T21:56:49.760Z,24.57
2023-03-16T22:00:50.000Z,24.55
2023-03-16T22:04:50.191Z,24.55
2023-03-16T22:12:50.599Z,24.58
2023-03-16T22:16:50.833Z,24.57
2023-03-16T22:20:51.002Z,24.57
2023-03-16T22:24:51.215Z,24.55
2023-03-16T22:28:51.429Z,24.57
2023-03-16T22:32:51.716Z,24.58
2023-03-16T22:36:51.861Z,24.57
2023-03-16T22:40:52.078Z,24.60
2023-03-16T22:44:52.280Z,24.58
2023-03-16T22:48:52.529Z,24.55
2023-03-16T22:52:52.720Z,24.57
2023-03-16T22:56:52.934Z,24.57
2023-03-16T23:00:53.198Z,24.58
2023-03-16T23:04:53.475Z,24.55
